createdAt,value
2023-04-15T00:01:30.018Z,100.00
2023-04-15T00:06:33.976Z,100.00
2023-04-15T00:11:36.574Z,100.00
2023-04-15T00:16:39.199Z,100.00
2023-04-15T00:21:43.069Z,100.00
2023-04-15T00:26:45.559Z,100.00
2023-04-15T00:31:48.064Z,100.00
2023-04-15T00:36:52.512Z,100.00
2023-04-15T00:41:55.837Z,100.00
2023-04-15T00:46:59.463Z,100.00
2023-04-15T00:52:03.653Z,100.00
2023-04-15T00:57:06.718Z,100.00
2023-04-15T01:02:09.395Z,100.00
2023-04-15T01:07:13.305Z,100.00
2023-04-15T01:12:18.039Z,100.00
2023-04-15T01:17:20.932Z,100.00
2023-04-15T01:22:25.509Z,100.00
2023-04-15T01:27:29.403Z,100.00
2023-04-15T01:32:31.997Z,100.00
2023-04-15T01:37:34.939Z,100.00
2023-04-15T01:42:38.841Z,100.00
2023-04-15T01:47:41.506Z,100.00
2023-04-15T01:52:44.341Z,100.00
2023-04-15T01:57:48.236Z,100.00
2023-04-15T02:02:51.255Z,100.00
2023-04-15T02:07:53.877Z,100.00
2023-04-15T02:12:57.738Z,100.00
2023-04-15T02:18:01.032Z,100.00
2023-04-15T02:23:07.265Z,100.00
2023-04-15T02:28:11.299Z,100.00
2023-04-15T02:33:13.815Z,100.00
2023-04-15T02:38:17.841Z,100.00
2023-04-15T02:43:21.827Z,100.00
2023-04-15T02:48:24.529Z,100.00
2023-04-15T02:53:27.040Z,100.00
2023-04-15T02:58:31.152Z,100.00
2023-04-15T03:03:33.759Z,100.00
2023-04-15T03:08:36.375Z,100.00
2023-04-15T03:13:41.788Z,100.00
2023-04-15T03:18:44.349Z,100.00
2023-04-15T03:23:46.943Z,100.00
2023-04-15T03:28:50.748Z,100.00
2023-04-15T03:33:53.258Z,100.00
2023-04-15T03:38:56.095Z,100.00
2023-04-15T03:43:59.917Z,100.00
2023-04-15T03:49:03.286Z,100.00
2023-04-15T03:54:06.282Z,100.00
2023-04-15T03:59:10.154Z,100.00
2023-04-15T04:04:12.733Z,100.00
2023-04-15T04:09:15.480Z,100.00
2023-04-15T04:14:19.359Z,100.00
2023-04-15T04:19:21.916Z,100.00
2023-04-15T04:24:24.504Z,100.00
2023-04-15T04:29:28.397Z,100.00
2023-04-15T04:34:31.078Z,100.00
2023-04-15T04:39:33.731Z,100.00
2023-04-15T04:44:37.973Z,100.00
2023-04-15T04:49:41.112Z,100.00
2023-04-15T04:54:43.658Z,100.00
2023-04-15T04:59:47.494Z,100.00
2023-04-15T05:04:50.278Z,100.00
2023-04-15T05:09:52.846Z,100.00
2023-04-15T05:14:56.689Z,100.00
2023-04-15T05:19:59.176Z,100.00
2023-04-15T05:25:01.697Z,100.00
2023-04-15T05:30:07.157Z,100.00
2023-04-15T05:35:09.962Z,100.00
2023-04-15T05:40:12.962Z,100.00
2023-04-15T05:45:16.841Z,100.00
2023-04-15T05:50:19.557Z,100.00
2023-04-15T05:55:22.235Z,100.00
2023-04-15T06:00:26.180Z,100.00
2023-04-15T06:05:29.232Z,100.00
2023-04-15T06:10:36.252Z,100.00
2023-04-15T06:15:40.139Z,100.00
2023-04-15T06:20:42.816Z,100.00
2023-04-15T06:25:45.734Z,100.00
2023-04-15T06:30:49.579Z,100.00
2023-04-15T06:35:52.089Z,100.00
2023-04-15T06:40:54.652Z,100.00
2023-04-15T06:45:58.522Z,100.00
2023-04-15T06:51:01.168Z,100.00
2023-04-15T06:56:03.653Z,100.00
2023-04-15T07:01:07.610Z,100.00
2023-04-15T07:06:10.208Z,100.00
2023-04-15T07:11:13.074Z,100.00
2023-04-15T07:16:16.904Z,100.00
2023-04-15T07:21:19.438Z,100.00
2023-04-15T07:26:21.956Z,100.00
2023-04-15T07:31:26.178Z,100.00
2023-04-15T07:36:29.301Z,100.00
2023-04-15T07:41:31.945Z,100.00
2023-04-15T07:46:37.178Z,100.00
2023-04-15T07:51:39.960Z,100.00
2023-04-15T07:56:42.556Z,100.00
2023-04-15T08:01:46.597Z,100.00
2023-04-15T08:06:50.252Z,100.00
2023-04-15T08:11:52.751Z,100.00
2023-04-15T08:16:56.574Z,100.00
2023-04-15T08:21:59.125Z,100.00
2023-04-15T08:27:04.399Z,100.00
2023-04-15T08:32:09.639Z,100.00
2023-04-15T08:37:12.736Z,99.73
2023-04-15T08:42:18.616Z,99.56
2023-04-15T08:47:27.567Z,99.37
2023-04-15T08:52:32.220Z,98.30
2023-04-15T08:57:34.934Z,98.54
2023-04-15T09:02:39.954Z,98.51
2023-04-15T09:07:42.827Z,97.68
2023-04-15T09:12:45.428Z,97.73
2023-04-15T09:17:49.437Z,96.97
2023-04-15T09:22:53.107Z,97.02
2023-04-15T09:27:57.445Z,96.48
2023-04-15T09:33:03.159Z,95.69
2023-04-15T09:38:07.821Z,95.90
2023-04-15T09:43:12.870Z,95.19
2023-04-15T09:48:20.725Z,93.84
2023-04-15T09:53:24.695Z,93.22
2023-04-15T09:58:28.789Z,92.63
2023-04-15T10:03:35.497Z,92.77
2023-04-15T10:08:38.391Z,91.48
2023-04-15T10:13:41.333Z,90.88
2023-04-15T10:18:46.524Z,90.55
2023-04-15T10:23:49.481Z,88.88
2023-04-15T10:28:53.508Z,89.53
2023-04-15T10:33:58.316Z,89.02
2023-04-15T10:39:01.349Z,87.04
2023-04-15T10:44:05.668Z,86.54
2023-04-15T10:49:11.396Z,88.10
2023-04-15T10:54:15.961Z,88.24
2023-04-15T10:59:19.209Z,88.00
2023-04-15T11:04:54.705Z,87.17
2023-04-15T11:09:57.489Z,87.15
2023-04-15T11:15:00.034Z,85.81
2023-04-15T11:20:04.516Z,85.87
2023-04-15T11:25:07.556Z,86.65
2023-04-15T11:30:20.024Z,87.12
2023-04-15T11:35:23.833Z,86.64
2023-04-15T11:40:28.122Z,86.06
2023-04-15T11:45:30.867Z,85.95
2023-04-15T11:50:35.358Z,85.47
2023-04-15T11:55:46.842Z,86.07
2023-04-15T12:00:52.334Z,86.42
2023-04-15T12:06:18.317Z,86.48
2023-04-15T12:11:21.420Z,85.31
2023-04-15T12:16:24.875Z,85.19
2023-04-15T12:21:34.443Z,85.63
2023-04-15T12:26:39.232Z,85.96
2023-04-15T12:31:52.443Z,86.21
2023-04-15T12:36:56.763Z,84.82
2023-04-15T12:42:00.091Z,85.32
2023-04-15T12:47:03.133Z,86.09
2023-04-15T12:52:07.392Z,86.81
2023-04-15T12:57:10.019Z,87.04
2023-04-15T13:02:12.649Z,87.66
2023-04-15T13:07:16.547Z,88.29
2023-04-15T13:12:19.113Z,88.97
2023-04-15T13:17:21.966Z,89.24
2023-04-15T13:22:25.869Z,89.27
2023-04-15T13:27:28.609Z,89.42
2023-04-15T13:32:31.238Z,89.99
2023-04-15T13:37:35.291Z,90.44
2023-04-15T13:42:37.773Z,90.74
2023-04-15T13:47:41.908Z,91.14
2023-04-15T13:52:45.867Z,91.62
2023-04-15T13:57:48.756Z,91.69
2023-04-15T14:02:51.878Z,91.92
2023-04-15T14:07:55.899Z,92.46
2023-04-15T14:12:58.533Z,92.52
2023-04-15T14:18:01.979Z,92.98
2023-04-15T14:23:05.851Z,93.01
2023-04-15T14:28:08.356Z,93.10
2023-04-15T14:33:10.889Z,93.68
2023-04-15T14:38:14.716Z,94.13
2023-04-15T14:43:17.254Z,94.14
2023-04-15T14:48:19.775Z,94.26
2023-04-15T14:53:23.602Z,94.49
2023-04-15T14:58:26.135Z,94.62
2023-04-15T15:03:29.151Z,94.65
2023-04-15T15:08:33.069Z,94.83
2023-04-15T15:13:35.927Z,94.69
2023-04-15T15:18:38.460Z,94.51
2023-04-15T15:23:42.329Z,94.24
2023-04-15T15:28:45.449Z,94.13
2023-04-15T15:33:47.936Z,94.23
2023-04-15T15:38:51.778Z,94.44
2023-04-15T15:43:55.114Z,94.19
2023-04-15T15:48:57.952Z,94.31
2023-04-15T15:54:01.800Z,94.51
2023-04-15T15:59:04.519Z,94.28
2023-04-15T16:04:07.499Z,94.46
2023-04-15T16:09:11.785Z,94.74
2023-04-15T16:14:14.908Z,94.73
2023-04-15T16:19:17.398Z,94.47
2023-04-15T16:24:21.358Z,94.46
2023-04-15T16:29:23.875Z,94.50
2023-04-15T16:34:26.363Z,94.57
2023-04-15T16:39:30.445Z,94.48
2023-04-15T16:44:33.417Z,94.08
2023-04-15T16:49:35.951Z,94.20
2023-04-15T16:54:41.603Z,93.86
2023-04-15T16:59:44.132Z,94.46
2023-04-15T17:04:46.601Z,94.70
2023-04-15T17:09:50.487Z,94.98
2023-04-15T17:14:52.959Z,94.56
2023-04-15T17:19:55.490Z,93.84
2023-04-15T17:24:59.372Z,93.40
2023-04-15T17:30:01.976Z,93.07
2023-04-15T17:35:06.303Z,93.13
2023-04-15T17:40:11.702Z,93.29
2023-04-15T17:45:14.960Z,93.52
2023-04-15T17:50:17.456Z,93.80
2023-04-15T17:55:22.076Z,94.23
2023-04-15T18:00:24.901Z,94.05
2023-04-15T18:05:27.483Z,94.30
2023-04-15T18:10:31.301Z,94.27
2023-04-15T18:15:34.231Z,94.28
2023-04-15T18:20:36.900Z,94.37
2023-04-15T18:25:43.351Z,94.33
2023-04-15T18:30:45.866Z,94.24
2023-04-15T18:35:50.054Z,94.32
2023-04-15T18:40:54.121Z,94.72
2023-04-15T18:45:56.722Z,94.89
2023-04-15T18:50:59.436Z,95.42
2023-04-15T18:56:03.442Z,95.61
2023-04-15T19:01:06.298Z,95.92
2023-04-15T19:06:08.931Z,96.33
2023-04-15T19:11:12.858Z,96.48
2023-04-15T19:16:15.561Z,96.91
2023-04-15T19:21:18.383Z,97.69
2023-04-15T19:26:22.286Z,97.47
2023-04-15T19:31:24.953Z,97.65
2023-04-15T19:36:28.489Z,97.93
2023-04-15T19:41:32.655Z,98.27
2023-04-15T19:46:35.357Z,98.21
2023-04-15T19:51:38.107Z,98.59
2023-04-15T19:56:42.018Z,99.26
2023-04-15T20:01:44.994Z,99.81
2023-04-15T20:06:47.648Z,99.84
2023-04-15T20:12:44.976Z,99.83
2023-04-15T20:17:15.961Z,100.00
2023-04-15T20:22:18.584Z,100.00
2023-04-15T20:27:22.610Z,100.00
2023-04-15T20:32:25.273Z,100.00
2023-04-15T20:37:29.512Z,100.00
2023-04-15T20:42:35.429Z,100.00
2023-04-15T20:47:38.064Z,100.00
2023-04-15T20:52:40.939Z,100.00
2023-04-15T20:57:44.925Z,100.00
2023-04-15T21:02:47.596Z,100.00
2023-04-15T21:07:50.300Z,100.00
2023-04-15T21:12:54.171Z,100.00
2023-04-15T21:17:56.865Z,100.00
2023-04-15T21:22:59.610Z,100.00
2023-04-15T21:28:04.139Z,100.00
2023-04-15T21:33:06.755Z,100.00
2023-04-15T21:38:09.384Z,100.00
2023-04-15T21:43:13.346Z,100.00
2023-04-15T21:48:15.994Z,100.00
2023-04-15T21:53:18.763Z,100.00
2023-04-15T21:58:22.773Z,100.00
2023-04-15T22:03:25.798Z,100.00
2023-04-15T22:08:28.592Z,100.00
2023-04-15T22:13:32.572Z,100.00
2023-04-15T22:18:35.140Z,100.00
2023-04-15T22:23:37.722Z,100.00
2023-04-15T22:28:41.674Z,100.00
2023-04-15T22:33:44.217Z,100.00
2023-04-15T22:38:46.910Z,100.00
2023-04-15T22:43:50.820Z,100.00
2023-04-15T22:48:54.074Z,100.00
2023-04-15T22:53:57.093Z,100.00
2023-04-15T22:59:01.037Z,100.00
2023-04-15T23:04:05.000Z,100.00
2023-04-15T23:09:09.800Z,100.00
2023-04-15T23:14:13.753Z,100.00
2023-04-15T23:19:16.483Z,100.00
2023-04-15T23:24:19.020Z,100.00
2023-04-15T23:29:22.816Z,100.00
2023-04-15T23:34:25.467Z,100.00
2023-04-15T23:39:27.996Z,100.00
2023-04-15T23:44:31.831Z,100.00
2023-04-15T23:49:34.376Z,100.00
2023-04-15T23:54:36.873Z,100.00
2023-04-15T23:59:40.719Z,100.00
